Time;durP1;ratioP1;P1;durP2;ratioP2;P2;SDS_P1;SDS_P2;PMS_P1;PMS_P2;Temp;Humidity;BMP_temperature;BMP_pressure;BME280_temperature;BME280_humidity;BME280_pressure;Samples;Min_cycle;Max_cycle;Signal;HPM_P1;HPM_P2
2022/08/10 00:01:28;;;;;;;10.53;6.80;;;;;;;9.67;76.65;100920.89;1697025;83;20862;-60
2022/08/10 00:03:55;;;;;;;11.85;8.70;;;;;;;9.61;76.60;100918.83;1701783;83;21120;-60
2022/08/10 00:06:22;;;;;;;11.78;7.10;;;;;;;9.55;76.64;100922.89;1692430;83;20924;-60
2022/08/10 00:08:49;;;;;;;13.40;8.23;;;;;;;9.54;76.77;100922.47;1693979;83;21690;-61
2022/08/10 00:11:15;;;;;;;11.80;7.80;;;;;;;9.54;76.92;100925.07;1699908;83;20975;-61
2022/08/10 00:13:42;;;;;;;18.60;8.07;;;;;;;9.52;76.97;100926.00;1702490;83;21007;-60
2022/08/10 00:16:09;;;;;;;18.17;10.38;;;;;;;9.51;77.04;100921.69;1692940;83;21031;-60
2022/08/10 00:18:35;;;;;;;15.20;8.78;;;;;;;9.49;77.16;100924.31;1704270;82;21068;-61
2022/08/10 00:21:07;;;;;;;17.90;11.33;;;;;;;9.47;77.25;100922.67;1708610;82;21445;-60
2022/08/10 00:23:34;;;;;;;17.73;8.83;;;;;;;9.43;77.26;100919.25;1699121;83;20954;-60
2022/08/10 00:26:02;;;;;;;17.35;8.85;;;;;;;9.37;77.12;100914.19;1692528;83;21417;-60
2022/08/10 00:28:29;;;;;;;;;;;;;;;9.30;77.13;100918.70;1695594;83;21849;-60
2022/08/10 00:30:56;;;;;;;22.73;10.98;;;;;;;9.29;77.43;100923.93;1692856;83;20143;-61
2022/08/10 00:33:23;;;;;;;23.75;10.90;;;;;;;9.28;77.50;100917.87;1701073;82;20928;-60
2022/08/10 00:35:50;;;;;;;21.60;10.23;;;;;;;9.27;77.51;100919.19;1692671;83;21015;-61
2022/08/10 00:38:16;;;;;;;17.35;8.95;;;;;;;9.28;77.55;100919.63;1692957;83;20926;-61
2022/08/10 00:40:43;;;;;;;15.30;7.93;;;;;;;9.24;77.52;100913.60;1694636;83;21878;-61
2022/08/10 00:43:09;;;;;;;12.30;8.00;;;;;;;9.19;77.60;100912.88;1684068;83;20888;-60
2022/08/10 00:45:36;;;;;;;13.62;8.33;;;;;;;9.16;77.61;100905.98;1669270;84;20931;-60
2022/08/10 00:48:03;;;;;;;14.23;7.83;;;;;;;9.12;77.66;100906.92;1683956;84;20911;-61
2022/08/10 00:50:30;;;;;;;16.40;8.85;;;;;;;9.07;77.62;100915.73;1681454;84;21108;-60
2022/08/10 00:52:57;;;;;;;25.37;11.65;;;;;;;9.07;77.79;100916.59;1676408;84;21010;-60
2022/08/10 00:55:25;;;;;;;15.75;9.33;;;;;;;9.08;77.84;100922.23;1678126;84;21298;-60
2022/08/10 00:57:52;;;;;;;17.90;9.98;;;;;;;9.09;77.96;100921.33;1677876;84;20968;-60
2022/08/10 01:00:18;;;;;;;18.42;10.32;;;;;;;9.12;78.01;100914.73;1684263;83;21496;-61
2022/08/10 01:02:45;;;;;;;68.45;13.80;;;;;;;9.12;78.08;100912.13;1683323;83;20975;-60
2022/08/10 01:05:13;;;;;;;81.53;16.70;;;;;;;9.14;78.26;100915.58;1685359;83;21464;-60
2022/08/10 01:08:07;;;;;;;43.70;15.08;;;;;;;9.17;78.46;100915.50;1701555;83;21010;-60
2022/08/10 01:10:42;;;;;;;40.55;16.70;;;;;;;9.21;78.61;100907.61;1696200;82;21745;-61
2022/08/10 01:13:29;;;;;;;22.45;12.13;;;;;;;9.27;78.69;100904.86;1705464;83;21467;-61
2022/08/10 01:16:20;;;;;;;47.62;13.38;;;;;;;9.29;78.59;100903.94;1702067;83;20935;-60
2022/08/10 01:19:07;;;;;;;120.17;14.15;;;;;;;9.25;78.48;100906.67;1693748;82;22066;-60
2022/08/10 01:22:03;;;;;;;144.87;13.70;;;;;;;9.15;78.45;100905.55;1703172;83;21051;-60
2022/08/10 01:24:54;;;;;;;32.97;13.83;;;;;;;9.09;78.54;100904.39;1713511;83;20885;-61
2022/08/10 01:28:01;;;;;;;22.32;11.33;;;;;;;9.05;78.77;100909.72;1643804;85;21489;-61
2022/08/10 01:30:31;;;;;;;30.88;12.60;;;;;;;9.03;78.85;100917.56;1625171;86;20987;-60
2022/08/10 01:33:11;;;;;;;64.60;11.90;;;;;;;9.00;78.97;100909.81;1617739;87;21990;-61
2022/08/10 01:35:46;;;;;;;84.97;11.30;;;;;;;9.00;79.14;100912.42;1642783;86;21582;-61
2022/08/10 01:38:29;;;;;;;115.92;12.10;;;;;;;9.00;79.22;100905.91;1643331;84;20901;-61
2022/08/10 01:41:19;;;;;;;95.92;14.28;;;;;;;8.99;79.21;100905.50;1631451;87;20971;-60
2022/08/10 01:43:51;;;;;;;49.83;11.93;;;;;;;8.99;79.33;100909.41;1599780;89;20963;-60
2022/08/10 01:46:21;;;;;;;17.85;11.57;;;;;;;9.01;79.41;100906.30;1549789;89;22632;-60
2022/08/10 01:48:52;;;;;;;27.70;14.18;;;;;;;9.03;79.33;100911.05;1583712;88;21177;-61
2022/08/10 01:51:33;;;;;;;39.73;13.78;;;;;;;8.99;79.28;100915.92;1600306;89;20987;-60
2022/08/10 01:54:06;;;;;;;21.57;13.68;;;;;;;8.99;79.37;100910.72;1563456;90;21005;-60
2022/08/10 01:56:38;;;;;;;23.67;11.75;;;;;;;8.99;79.45;100913.32;1584018;89;21015;-60
2022/08/10 01:59:29;;;;;;;55.52;12.13;;;;;;;9.01;79.53;100919.33;1565588;91;21578;-60
2022/08/10 02:02:03;;;;;;;25.90;12.20;;;;;;;9.03;79.63;100916.25;1567876;90;20981;-61
2022/08/10 02:04:33;;;;;;;77.08;11.50;;;;;;;9.05;79.60;100910.58;1613379;86;21061;-61
2022/08/10 02:07:02;;;;;;;65.45;10.38;;;;;;;9.04;79.53;100915.80;1595346;88;20992;-61
2022/08/10 02:09:33;;;;;;;76.37;12.30;;;;;;;9.01;79.53;100908.91;1635663;86;20911;-61
2022/08/10 02:12:07;;;;;;;70.42;10.53;;;;;;;8.93;79.47;100905.61;1595333;88;21073;-61
2022/08/10 02:14:56;;;;;;;38.55;10.88;;;;;;;8.84;79.49;100908.42;1637515;86;21412;-61
2022/08/10 02:17:35;;;;;;;44.80;9.08;;;;;;;8.78;79.60;100905.95;1579360;88;20917;-61
2022/08/10 02:20:13;;;;;;;32.20;9.05;;;;;;;8.72;79.70;100897.83;1647309;85;20941;-61
2022/08/10 02:22:43;;;;;;;69.58;11.78;;;;;;;8.68;79.74;100903.55;1676131;84;20885;-61
2022/08/10 02:25:13;;;;;;;46.15;9.78;;;;;;;8.64;79.83;100904.48;1677265;84;21440;-60
2022/08/10 02:27:41;;;;;;;33.65;8.43;;;;;;;8.65;80.00;100902.28;1676744;84;20889;-60
2022/08/10 02:30:10;;;;;;;67.45;9.13;;;;;;;8.65;80.06;100906.19;1676260;84;21480;-61
2022/08/10 02:32:38;;;;;;;40.80;9.63;;;;;;;8.61;79.86;100907.16;1674381;84;21521;-60
2022/08/10 02:35:10;;;;;;;29.07;8.65;;;;;;;8.58;80.02;100912.42;1682938;84;21557;-60
2022/08/10 02:37:39;;;;;;;17.23;10.38;;;;;;;8.56;80.06;100919.39;1675502;84;20965;-60
2022/08/10 02:40:07;;;;;;;78.90;10.90;;;;;;;8.55;80.24;100913.79;1675574;84;20964;-60
2022/08/10 02:42:45;;;;;;;86.90;10.58;;;;;;;8.58;80.31;100920.23;1696848;83;20946;-61
2022/08/10 02:45:33;;;;;;;75.30;10.10;;;;;;;8.58;80.31;100925.44;1675258;84;20905;-61
2022/08/10 02:48:08;;;;;;;64.65;12.10;;;;;;;8.60;80.47;100926.28;1674991;84;20960;-60
2022/08/10 02:50:39;;;;;;;83.50;12.95;;;;;;;8.65;80.52;100928.31;1676431;84;21149;-60
2022/08/10 02:53:22;;;;;;;79.03;11.88;;;;;;;8.66;80.51;100928.75;1675640;84;20956;-60
2022/08/10 02:55:54;;;;;;;59.25;12.10;;;;;;;8.62;80.37;100929.69;1666334;84;21536;-61
2022/08/10 02:58:28;;;;;;;56.95;11.05;;;;;;;8.58;80.47;100928.05;1666614;84;20867;-61
2022/08/10 03:00:56;;;;;;;46.20;11.40;;;;;;;8.57;80.60;100921.13;1676408;84;20853;-60
2022/08/10 03:03:30;;;;;;;28.77;8.08;;;;;;;8.59;80.66;100924.54;1677658;84;22150;-60
2022/08/10 03:06:00;;;;;;;40.30;9.60;;;;;;;8.58;80.64;100922.84;1676931;84;20915;-61
2022/08/10 03:08:31;;;;;;;50.05;9.55;;;;;;;8.56;80.68;100924.61;1676433;84;20864;-60
2022/08/10 03:11:02;;;;;;;30.88;8.80;;;;;;;8.53;80.63;100924.67;1676139;84;21041;-60
2022/08/10 03:13:30;;;;;;;45.00;11.08;;;;;;;8.48;80.61;100925.19;1676477;84;20935;-61
2022/08/10 03:15:57;;;;;;;52.62;10.48;;;;;;;8.43;80.73;100918.80;1676394;84;21009;-60
2022/08/10 03:18:24;;;;;;;;;;;;;;;8.44;80.95;100925.70;1680684;84;20908;-60
2022/08/10 03:20:52;;;;;;;47.03;10.23;;;;;;;8.46;81.03;100934.35;1681854;84;20119;-60
2022/08/10 03:23:22;;;;;;;59.03;10.88;;;;;;;8.47;81.02;100930.00;1681702;84;21361;-61
2022/08/10 03:25:52;;;;;;;27.50;8.38;;;;;;;8.47;81.01;100930.00;1677649;83;20908;-61
2022/08/10 03:28:21;;;;;;;73.17;10.18;;;;;;;8.48;81.01;100940.81;1693438;83;21052;-61
2022/08/10 03:30:48;;;;;;;33.58;7.40;;;;;;;8.52;81.18;100943.78;1677757;83;20936;-60
2022/08/10 03:33:17;;;;;;;44.90;7.87;;;;;;;8.54;81.08;100941.98;1682882;84;20927;-60
2022/08/10 03:35:44;;;;;;;58.65;8.28;;;;;;;8.54;81.13;100939.39;1676658;84;21388;-60
2022/08/10 03:38:10;;;;;;;52.75;7.65;;;;;;;8.57;81.09;100949.77;1677531;84;20948;-60
2022/08/10 03:40:39;;;;;;;27.98;6.33;;;;;;;8.61;81.12;100945.35;1676830;84;21546;-60
2022/08/10 03:43:08;;;;;;;48.95;7.15;;;;;;;8.61;81.08;100943.60;1677399;83;20952;-60
2022/08/10 03:45:35;;;;;;;19.45;6.53;;;;;;;8.66;81.27;100949.58;1675578;84;20943;-61
2022/08/10 03:48:05;;;;;;;34.92;6.80;;;;;;;8.79;81.36;100949.32;1677776;83;20911;-61
2022/08/10 03:50:33;;;;;;;20.25;6.72;;;;;;;8.88;81.30;100941.34;1682773;84;20899;-60
2022/08/10 03:53:00;;;;;;;26.55;8.28;;;;;;;8.98;81.47;100941.99;1671427;84;21047;-60
2022/08/10 03:55:27;;;;;;;36.50;8.70;;;;;;;9.19;81.67;100942.84;1678694;84;20954;-60
2022/08/10 03:57:54;;;;;;;27.20;7.08;;;;;;;9.40;81.60;100942.79;1678194;84;20939;-61
2022/08/10 04:00:22;;;;;;;42.98;7.58;;;;;;;9.62;81.38;100946.61;1677352;84;20887;-61
2022/08/10 04:02:51;;;;;;;44.85;7.25;;;;;;;9.84;81.33;100951.31;1680480;84;20972;-61
2022/08/10 04:05:17;;;;;;;35.83;7.28;;;;;;;10.04;81.26;100951.67;1686656;84;21069;-61
2022/08/10 04:07:45;;;;;;;18.57;7.15;;;;;;;10.20;81.05;100948.68;1686227;84;20921;-61
2022/08/10 04:10:13;;;;;;;41.98;7.28;;;;;;;10.42;81.18;100948.55;1701316;84;20919;-61
2022/08/10 04:12:39;;;;;;;23.42;7.97;;;;;;;10.75;81.15;100945.87;1700489;83;20875;-61
2022/08/10 04:15:07;;;;;;;20.63;9.57;;;;;;;11.11;81.07;100947.02;1701165;84;20950;-61
2022/08/10 04:17:34;;;;;;;12.68;8.63;;;;;;;11.37;80.70;100941.87;1695282;83;21037;-61
2022/08/10 04:20:03;;;;;;;14.65;8.08;;;;;;;11.64;80.63;100943.19;1699234;82;20911;-61
2022/08/10 04:22:31;;;;;;;30.77;9.83;;;;;;;11.82;80.43;100945.22;1700846;82;20908;-61
2022/08/10 04:25:01;;;;;;;42.65;10.13;;;;;;;12.08;80.71;100946.14;1701122;83;20934;-60
2022/08/10 04:27:29;;;;;;;42.10;10.35;;;;;;;12.39;80.61;100934.61;1696403;83;21084;-61
2022/08/10 04:29:56;;;;;;;55.65;10.13;;;;;;;12.62;80.29;100933.31;1702238;83;21101;-61
2022/08/10 04:32:24;;;;;;;41.42;11.28;;;;;;;12.81;79.96;100937.89;1694326;83;20938;-61
2022/08/10 04:34:51;;;;;;;;;;;;;;;12.96;79.91;100934.69;1707608;82;20942;-61
2022/08/10 04:37:20;;;;;;;31.62;8.35;;;;;;;13.14;79.86;100935.30;1704653;82;20097;-60
2022/08/10 04:39:48;;;;;;;64.77;9.15;;;;;;;13.33;79.71;100937.23;1699470;83;20895;-61
2022/08/10 04:42:14;;;;;;;;;;;;;;;13.57;79.79;100948.06;1699492;83;21033;-61
2022/08/10 04:44:42;;;;;;;60.23;9.00;;;;;;;13.92;79.65;100943.16;1687489;83;20106;-60
2022/08/10 04:47:08;;;;;;;19.12;9.15;;;;;;;14.40;79.74;100948.55;1700267;83;21059;-61
2022/08/10 04:49:35;;;;;;;63.73;10.28;;;;;;;14.99;79.64;100943.73;1697596;83;20982;-61
2022/08/10 04:52:02;;;;;;;29.92;9.53;;;;;;;15.67;79.40;100935.25;1702656;82;21480;-61
2022/08/10 04:54:29;;;;;;;20.77;9.58;;;;;;;16.25;78.64;100937.63;1702806;83;21041;-61
2022/08/10 04:56:55;;;;;;;48.75;9.20;;;;;;;16.84;78.52;100937.22;1698142;82;21405;-62
2022/08/10 04:59:22;;;;;;;82.47;9.90;;;;;;;17.37;78.23;100947.93;1698707;84;20930;-61
2022/08/10 05:01:49;;;;;;;15.20;7.75;;;;;;;17.96;78.63;100941.03;1692660;84;20943;-61
2022/08/10 05:04:16;;;;;;;26.55;8.68;;;;;;;18.73;78.24;100946.98;1689144;84;21457;-62
2022/08/10 05:06:43;;;;;;;23.50;10.10;;;;;;;19.47;78.10;100935.73;1688510;83;21100;-62
2022/08/10 05:09:09;;;;;;;9.93;7.67;;;;;;;20.22;77.79;100936.91;1684954;84;21012;-62
2022/08/10 05:11:36;;;;;;;8.73;7.83;;;;;;;21.06;77.46;100943.45;1685508;84;26903;-62
2022/08/10 05:14:03;;;;;;;8.20;6.95;;;;;;;21.67;76.64;100938.96;1687151;84;20984;-63
2022/08/10 05:16:29;;;;;;;10.93;6.78;;;;;;;22.14;75.39;100939.00;1688405;83;21022;-62
2022/08/10 05:18:56;;;;;;;8.10;6.85;;;;;;;22.78;76.06;100934.50;1691785;84;21843;-62
2022/08/10 05:21:22;;;;;;;;;;;;;;;23.64;75.29;100934.23;1689407;84;20955;-61
2022/08/10 05:23:51;;;;;;;14.47;6.55;;;;;;;24.13;73.89;100930.12;1695692;83;20128;-62
2022/08/10 05:26:18;;;;;;;9.00;6.85;;;;;;;24.79;73.90;100933.30;1688709;83;21488;-61
2022/08/10 05:28:44;;;;;;;10.15;6.53;;;;;;;25.01;72.54;100931.38;1680630;84;20880;-62
2022/08/10 05:31:11;;;;;;;12.88;6.03;;;;;;;25.44;73.07;100936.44;1680783;83;21633;-62
2022/08/10 05:33:38;;;;;;;10.25;5.17;;;;;;;25.76;70.93;100929.12;1684766;84;20971;-62
2022/08/10 05:36:06;;;;;;;7.05;5.05;;;;;;;25.77;70.15;100926.81;1687653;84;20883;-62
2022/08/10 05:38:34;;;;;;;6.87;4.90;;;;;;;25.88;69.63;100924.86;1668260;84;21014;-62
2022/08/10 05:41:02;;;;;;;5.00;4.50;;;;;;;26.08;69.46;100929.69;1679525;84;20952;-62
2022/08/10 05:43:28;;;;;;;4.45;4.05;;;;;;;26.33;68.89;100923.36;1686221;84;21107;-62
2022/08/10 05:45:55;;;;;;;4.90;3.80;;;;;;;26.86;69.39;100921.41;1678025;84;20948;-62
2022/08/10 05:48:22;;;;;;;11.35;3.45;;;;;;;27.42;68.52;100920.38;1678899;84;20916;-62
2022/08/10 05:50:49;;;;;;;5.05;2.80;;;;;;;27.59;67.20;100920.53;1663610;84;20916;-62
2022/08/10 05:53:15;;;;;;;4.28;2.77;;;;;;;27.45;65.85;100929.45;1675238;84;20940;-62
2022/08/10 05:55:42;;;;;;;5.05;2.35;;;;;;;27.45;65.76;100925.44;1676785;84;21051;-61
2022/08/10 05:58:09;;;;;;;2.50;2.10;;;;;;;27.33;63.89;100926.64;1682919;82;20907;-60
2022/08/10 06:00:39;;;;;;;4.17;2.52;;;;;;;26.90;64.16;100927.31;1682689;83;21587;-64
2022/08/10 06:03:09;;;;;;;7.72;2.27;;;;;;;27.13;64.70;100934.44;1713016;83;20965;-62
2022/08/10 06:05:39;;;;;;;7.55;2.40;;;;;;;27.44;64.45;100942.50;1716829;82;20930;-63
2022/08/10 06:08:11;;;;;;;3.42;2.15;;;;;;;27.64;64.02;100939.67;1711257;82;21040;-63
2022/08/10 06:10:40;;;;;;;4.15;2.17;;;;;;;27.83;63.51;100931.48;1710940;83;20924;-62
2022/08/10 06:15:55;;;;;;;3.22;1.82;;;;;;;27.50;60.86;100936.19;1700783;83;20985;-62
2022/08/10 06:18:23;;;;;;;3.22;1.90;;;;;;;26.98;61.41;100925.56;1695473;82;20918;-62
2022/08/10 06:20:51;;;;;;;4.90;1.98;;;;;;;27.34;61.03;100931.02;1701515;83;21110;-64
2022/08/10 06:23:18;;;;;;;3.27;2.15;;;;;;;26.76;58.73;100934.00;1700789;82;20913;-63
2022/08/10 06:25:45;;;;;;;3.55;2.45;;;;;;;26.33;56.28;100939.43;1696889;83;20910;-62
2022/08/10 06:28:15;;;;;;;2.47;2.10;;;;;;;26.02;58.98;100939.63;1703153;83;20954;-63
2022/08/10 06:30:44;;;;;;;5.10;1.98;;;;;;;25.89;57.58;100937.73;1705007;83;20921;-62
2022/08/10 06:33:12;;;;;;;3.80;1.90;;;;;;;25.96;58.00;100933.98;1703448;82;21887;-62
2022/08/10 06:35:40;;;;;;;3.12;1.52;;;;;;;26.01;58.25;100939.26;1697253;83;20928;-62
2022/08/10 06:38:08;;;;;;;2.72;1.57;;;;;;;26.11;55.21;100941.44;1704490;83;20880;-62
2022/08/10 06:40:42;;;;;;;2.85;1.55;;;;;;;25.68;56.55;100933.36;1697797;83;20904;-61
2022/08/10 06:43:14;;;;;;;2.65;1.90;;;;;;;25.17;55.75;100934.41;1703201;82;21489;-61
2022/08/10 06:46:01;;;;;;;2.77;1.42;;;;;;;25.13;56.78;100935.66;1709130;82;21511;-62
2022/08/10 06:48:35;;;;;;;1.92;1.45;;;;;;;25.44;56.32;100938.27;1705447;83;20949;-61
2022/08/10 06:51:06;;;;;;;2.92;1.75;;;;;;;25.74;56.52;100936.43;1691466;83;20959;-61
2022/08/10 06:53:40;;;;;;;3.27;1.25;;;;;;;25.35;54.89;100941.78;1704885;83;22042;-61
2022/08/10 06:56:23;;;;;;;2.05;1.50;;;;;;;25.03;54.09;100945.46;1703707;82;20923;-61
2022/08/10 06:58:58;;;;;;;1.50;1.40;;;;;;;23.94;54.03;100943.33;1702326;83;21106;-62
2022/08/10 07:01:29;;;;;;;2.60;1.42;;;;;;;23.95;54.73;100937.04;1692774;83;20913;-61
2022/08/10 07:04:17;;;;;;;1.70;1.60;;;;;;;23.56;54.36;100938.02;1665704;85;20922;-61
2022/08/10 07:06:46;;;;;;;2.25;1.70;;;;;;;22.97;53.67;100940.09;1683699;83;21449;-61
2022/08/10 07:09:16;;;;;;;4.20;2.10;;;;;;;22.29;54.40;100939.66;1695493;83;21019;-61
2022/08/10 07:11:44;;;;;;;6.25;2.08;;;;;;;22.05;55.02;100940.56;1688219;83;21183;-61
2022/08/10 07:14:13;;;;;;;3.15;2.00;;;;;;;22.65;55.70;100941.76;1698042;83;20956;-62
2022/08/10 07:16:44;;;;;;;3.62;2.10;;;;;;;23.30;55.41;100939.68;1683248;83;21500;-61
2022/08/10 07:19:12;;;;;;;2.35;1.62;;;;;;;23.76;55.59;100930.56;1692126;83;20943;-61
2022/08/10 07:21:42;;;;;;;2.40;1.60;;;;;;;24.04;54.70;100918.91;1687674;83;20927;-61
2022/08/10 07:24:10;;;;;;;1.35;1.25;;;;;;;24.04;54.09;100927.75;1689931;83;21305;-60
2022/08/10 07:26:41;;;;;;;1.57;1.40;;;;;;;23.78;53.46;100927.75;1698772;83;20926;-61
2022/08/10 07:29:09;;;;;;;2.35;1.50;;;;;;;23.26;53.87;100924.89;1702769;82;20962;-61
2022/08/10 07:31:38;;;;;;;2.17;1.47;;;;;;;22.99;54.19;100928.84;1700573;83;21846;-61
2022/08/10 07:34:06;;;;;;;3.27;1.50;;;;;;;22.64;54.31;100936.08;1691437;83;20944;-61
2022/08/10 07:36:37;;;;;;;2.15;1.57;;;;;;;22.26;54.47;100935.91;1692331;83;20959;-60
2022/08/10 07:39:06;;;;;;;1.57;1.40;;;;;;;21.93;54.90;100936.64;1691181;83;20934;-61
2022/08/10 07:41:37;;;;;;;4.35;1.60;;;;;;;22.35;55.91;100933.89;1666510;84;20926;-61
2022/08/10 07:44:06;;;;;;;1.77;1.60;;;;;;;22.50;54.84;100943.33;1677071;83;20966;-61
2022/08/10 07:46:40;;;;;;;2.15;1.70;;;;;;;22.55;54.67;100940.32;1669813;84;20986;-61
2022/08/10 07:49:16;;;;;;;2.40;1.65;;;;;;;22.25;54.25;100940.39;1685872;84;21576;-60
2022/08/10 07:51:44;;;;;;;1.60;1.50;;;;;;;21.77;54.07;100942.28;1685790;83;20942;-60
2022/08/10 07:54:14;;;;;;;1.70;1.50;;;;;;;21.54;54.89;100937.36;1649649;85;20917;-60
2022/08/10 07:56:47;;;;;;;2.50;2.27;;;;;;;21.57;55.48;100935.31;1683568;83;20915;-60
2022/08/10 07:59:19;;;;;;;2.60;2.00;;;;;;;21.76;55.02;100933.47;1667530;84;20991;-60
2022/08/10 08:01:51;;;;;;;1.95;1.85;;;;;;;22.04;55.78;100936.22;1681249;83;21856;-60
2022/08/10 08:04:21;;;;;;;4.58;4.17;;;;;;;22.12;55.17;100938.27;1661320;84;20921;-61
2022/08/10 08:06:49;;;;;;;3.85;3.47;;;;;;;22.15;55.43;100943.84;1677454;84;21483;-60
2022/08/10 08:09:18;;;;;;;3.08;2.47;;;;;;;22.29;54.83;100938.33;1672988;84;20976;-60
2022/08/10 08:11:46;;;;;;;3.42;1.85;;;;;;;22.04;54.52;100936.22;1677725;84;21012;-60
2022/08/10 08:14:14;;;;;;;2.25;2.05;;;;;;;22.00;55.05;100944.05;1678362;84;21095;-60
2022/08/10 08:16:45;;;;;;;3.00;2.30;;;;;;;21.58;55.01;100930.84;1676910;84;20919;-60
2022/08/10 08:19:13;;;;;;;4.58;1.72;;;;;;;21.38;55.48;100942.94;1677777;84;20912;-60
2022/08/10 08:21:40;;;;;;;3.30;1.70;;;;;;;21.53;55.72;100939.14;1653701;84;21512;-61
2022/08/10 08:24:09;;;;;;;1.70;1.55;;;;;;;21.67;55.82;100940.28;1664055;83;20956;-60
2022/08/10 08:26:38;;;;;;;2.90;1.80;;;;;;;21.56;55.16;100934.08;1664127;84;21190;-60
2022/08/10 08:29:05;;;;;;;2.08;1.62;;;;;;;21.41;55.82;100933.41;1677694;84;20952;-61
2022/08/10 08:31:31;;;;;;;;;;;;;;;21.66;56.02;100937.27;1675132;84;21505;-60
2022/08/10 08:33:58;;;;;;;;;;;;;;;21.95;54.79;100935.56;1675374;84;20113;-60
2022/08/10 08:36:38;;;;;;;1.60;1.42;;;;;;;22.02;55.61;100932.81;1686148;83;20092;-60
2022/08/10 08:39:08;;;;;;;2.20;1.70;;;;;;;22.40;55.85;100937.02;1670332;84;21921;-61
2022/08/10 08:42:25;;;;;;;1.87;1.60;;;;;;;22.65;55.42;100924.45;1676495;84;21425;-60
2022/08/10 08:45:24;;;;;;;;;;;;;;;22.86;55.44;100916.59;1678782;84;20915;-60
2022/08/10 08:48:29;;;;;;;2.50;1.90;;;;;;;22.94;54.77;100923.00;1683363;84;20270;-60
2022/08/10 08:51:28;;;;;;;3.33;2.03;;;;;;;22.62;54.49;100931.36;1678673;84;20924;-62
2022/08/10 08:54:33;;;;;;;5.58;1.95;;;;;;;22.25;54.63;100922.25;1686879;84;21009;-61
2022/08/10 08:57:26;;;;;;;2.70;1.98;;;;;;;22.30;54.73;100925.41;1685270;84;21465;-59
2022/08/10 09:00:04;;;;;;;4.75;1.87;;;;;;;22.04;54.46;100925.58;1689366;83;20960;-60
2022/08/10 09:03:25;;;;;;;4.55;1.82;;;;;;;21.89;54.72;100916.94;1688690;83;20943;-59
2022/08/10 09:06:09;;;;;;;1.87;1.62;;;;;;;22.38;55.33;100925.67;1688574;83;20991;-61
2022/08/10 09:09:24;;;;;;;2.02;1.80;;;;;;;22.52;53.37;100920.11;1689763;84;20915;-60
2022/08/10 09:12:20;;;;;;;2.87;1.80;;;;;;;22.61;53.54;100923.02;1688878;83;21002;-60
2022/08/10 09:15:01;;;;;;;2.47;1.67;;;;;;;22.34;53.75;100931.69;1684985;84;21512;-61
2022/08/10 09:18:17;;;;;;;3.17;1.60;;;;;;;22.28;53.57;100928.17;1683544;84;20978;-60
2022/08/10 09:21:04;;;;;;;2.20;1.52;;;;;;;22.12;53.10;100931.16;1657311;85;20992;-60
2022/08/10 09:24:06;;;;;;;2.20;1.80;;;;;;;21.90;53.46;100918.64;1632722;85;21041;-60
2022/08/10 09:26:53;;;;;;;1.85;1.67;;;;;;;21.66;53.54;100926.64;1633325;86;21008;-60
2022/08/10 09:29:30;;;;;;;1.60;1.45;;;;;;;21.44;53.81;100926.55;1618441;87;20984;-60
2022/08/10 09:32:14;;;;;;;2.00;1.80;;;;;;;21.17;53.82;100927.58;1664137;84;20970;-61
2022/08/10 09:35:16;;;;;;;2.27;1.80;;;;;;;21.09;54.05;100927.29;1666976;85;20988;-61
2022/08/10 09:38:25;;;;;;;1.80;1.65;;;;;;;21.14;54.37;100923.80;1670938;84;21099;-62
2022/08/10 09:41:32;;;;;;;3.52;1.50;;;;;;;21.16;54.23;100928.52;1670089;84;20924;-61
2022/08/10 09:44:19;;;;;;;2.20;1.40;;;;;;;21.15;54.52;100924.19;1671354;84;21024;-60
2022/08/10 09:47:17;;;;;;;2.33;1.57;;;;;;;21.17;54.51;100916.96;1669346;84;20959;-61
2022/08/10 09:50:11;;;;;;;1.55;1.20;;;;;;;21.57;54.51;100914.05;1668847;84;21530;-60
2022/08/10 09:53:16;;;;;;;1.45;1.35;;;;;;;22.02;53.85;100906.22;1692766;84;21097;-60
2022/08/10 09:56:03;;;;;;;1.47;1.30;;;;;;;22.49;54.68;100900.85;1677225;84;20981;-61
2022/08/10 09:59:11;;;;;;;3.08;0.93;;;;;;;22.94;53.89;100901.69;1684312;82;20921;-60
2022/08/10 10:02:05;;;;;;;1.65;1.17;;;;;;;23.18;53.77;100900.69;1692211;83;20973;-60
2022/08/10 10:04:47;;;;;;;1.22;1.00;;;;;;;23.32;52.19;100894.23;1676086;84;21035;-61
2022/08/10 10:07:23;;;;;;;2.15;1.20;;;;;;;23.10;51.66;100895.14;1673436;84;21100;-61
2022/08/10 10:10:01;;;;;;;2.67;1.20;;;;;;;23.13;52.62;100890.89;1663969;84;21473;-60
2022/08/10 10:12:53;;;;;;;2.35;1.20;;;;;;;23.46;52.62;100888.61;1681096;84;21006;-60
2022/08/10 10:15:49;;;;;;;1.87;1.40;;;;;;;23.50;52.05;100897.19;1665968;84;20956;-60
2022/08/10 10:18:36;;;;;;;0.80;0.80;;;;;;;23.41;51.57;100886.34;1671423;84;21376;-60
2022/08/10 10:21:15;;;;;;;1.47;1.05;;;;;;;23.44;52.01;100890.55;1677145;84;21455;-60
2022/08/10 10:23:57;;;;;;;1.30;1.20;;;;;;;23.56;51.68;100884.70;1677396;84;21012;-60
2022/08/10 10:26:53;;;;;;;1.35;1.00;;;;;;;23.72;51.43;100873.12;1671304;84;20940;-60
2022/08/10 10:29:59;;;;;;;2.58;1.30;;;;;;;23.77;51.07;100870.91;1676838;84;20985;-60
2022/08/10 10:32:54;;;;;;;1.60;1.22;;;;;;;23.85;50.64;100881.78;1676956;84;20962;-60
2022/08/10 10:35:46;;;;;;;1.20;1.07;;;;;;;23.86;50.44;100875.95;1677441;84;21082;-61
2022/08/10 10:38:16;;;;;;;1.85;1.10;;;;;;;23.92;50.02;100870.59;1679828;83;20904;-61
2022/08/10 10:41:03;;;;;;;2.22;1.07;;;;;;;23.97;50.08;100863.04;1687357;83;20939;-61
2022/08/10 10:43:55;;;;;;;1.35;1.00;;;;;;;24.20;49.95;100871.27;1677919;84;21438;-60
2022/08/10 10:47:19;;;;;;;5.25;1.25;;;;;;;24.16;48.17;100863.16;1685591;84;20943;-60
2022/08/10 10:50:41;;;;;;;2.37;0.80;;;;;;;24.03;48.61;100863.84;1676969;84;21102;-60
2022/08/10 10:53:44;;;;;;;1.72;0.90;;;;;;;24.13;48.82;100860.75;1678872;84;21011;-60
2022/08/10 10:56:48;;;;;;;1.42;1.12;;;;;;;24.18;48.47;100861.20;1687454;83;20896;-60
2022/08/10 10:59:31;;;;;;;2.75;0.93;;;;;;;24.25;48.36;100854.34;1687467;83;20903;-60
2022/08/10 11:02:18;;;;;;;1.42;0.85;;;;;;;24.42;48.12;100855.53;1687036;84;20942;-60
2022/08/10 11:04:57;;;;;;;1.22;1.00;;;;;;;24.67;47.96;100863.59;1689917;83;21180;-60
2022/08/10 11:07:37;;;;;;;2.27;1.30;;;;;;;24.68;47.67;100855.96;1678603;83;21509;-60
2022/08/10 11:10:08;;;;;;;1.27;1.10;;;;;;;24.70;47.12;100857.14;1677051;84;20907;-60
2022/08/10 11:13:20;;;;;;;1.37;0.90;;;;;;;24.74;46.00;100862.08;1684970;84;20982;-60
2022/08/10 11:16:13;;;;;;;1.25;1.00;;;;;;;24.24;46.01;100849.99;1673352;84;20923;-60
2022/08/10 11:19:16;;;;;;;1.12;0.93;;;;;;;24.00;46.67;100865.44;1678415;84;22091;-60
2022/08/10 11:22:10;;;;;;;3.08;1.10;;;;;;;23.50;45.94;100874.07;1596604;88;20998;-60
2022/08/10 11:25:00;;;;;;;1.20;1.00;;;;;;;22.83;46.38;100867.09;1592386;88;20962;-60
2022/08/10 11:28:03;;;;;;;2.37;1.22;;;;;;;22.56;46.77;100865.66;1600891;88;21439;-60
2022/08/10 11:30:58;;;;;;;1.62;1.20;;;;;;;22.24;46.91;100872.69;1592153;89;21053;-60
2022/08/10 11:33:49;;;;;;;1.32;1.00;;;;;;;22.16;47.08;100867.08;1582895;88;21975;-60
2022/08/10 11:36:21;;;;;;;1.12;0.90;;;;;;;22.23;47.36;100864.32;1578549;89;21889;-60
2022/08/10 11:39:17;;;;;;;1.20;1.00;;;;;;;22.72;47.41;100864.45;1579267;89;20964;-59
2022/08/10 11:41:54;;;;;;;2.15;1.37;;;;;;;23.05;47.51;100857.37;1578607;89;20916;-60
2022/08/10 11:44:42;;;;;;;1.67;0.98;;;;;;;23.51;47.50;100854.91;1575289;89;86644;-62
2022/08/10 11:47:19;;;;;;;2.75;1.02;;;;;;;23.65;47.05;100855.93;1561920;90;21923;-60
2022/08/10 11:50:03;;;;;;;3.08;0.70;;;;;;;23.40;46.79;100870.47;1538091;91;21024;-60
2022/08/10 11:52:52;;;;;;;1.12;0.78;;;;;;;23.03;46.32;100861.52;1544614;91;21009;-60
2022/08/10 11:55:22;;;;;;;1.12;0.80;;;;;;;22.52;46.51;100862.05;1545032;91;21052;-61
2022/08/10 11:57:53;;;;;;;1.57;0.90;;;;;;;22.11;46.56;100858.95;1546793;91;21065;-60
2022/08/10 12:00:21;;;;;;;2.15;1.17;;;;;;;22.02;47.06;100866.33;1623655;87;21050;-60
2022/08/10 12:03:01;;;;;;;1.02;0.93;;;;;;;22.32;47.21;100844.97;1664654;84;21489;-60
2022/08/10 12:05:35;;;;;;;1.35;0.85;;;;;;;22.66;47.19;100838.30;1676227;84;20997;-61
2022/08/10 12:08:03;;;;;;;1.82;1.05;;;;;;;23.01;47.14;100825.66;1680093;84;20965;-60